Wednesday, April 25, 2018, 12:32 PM GMT
Back to Local

CWPD, Parc Des Laurentid

Location: , , Canada Lat: 47.567
Local Time: 12:32 PM GMT (12:32 GMT) Lon: -71.233
Time Zone: GMT Elev: 2634 ft

Show me the last for .
Show Coded

Time T Td Feel RH Dir Speed Gust Alt SLP Vis Weather Sky Remarks
2018-04-25 12:00 41 37 - 86 220° 2 - - 30.01 0 None
2018-04-25 11:00 39 36 - 91 - Calm - - 30.00 0 None
2018-04-25 10:00 40 36 - 84 - Calm - - 29.98 0 None
2018-04-25 09:00 44 38 - 79 140° 2 - - 29.97 0 None
2018-04-25 08:00 35 35 - 100 180° 1 - - 29.99 0 None
2018-04-25 06:00 37 34 - 89 210° 1 - - 30.00 0 None
2018-04-25 05:00 36 32 - 85 220° 2 - - 30.02 0 None
2018-04-25 04:00 35 31 - 84 210° 1 - - 30.03 0 None
2018-04-25 03:00 36 31 34 81 210° 3 - - 30.04 0 None
2018-04-25 02:00 36 31 - 81 220° 1 - - 30.05 0 None
2018-04-25 01:00 39 31 - 73 190° 1 - - 30.06 0 None
2018-04-25 00:00 42 29 - 61 160° 1 - - 30.07 0 None
2018-04-24 23:00 46 28 - 49 180° 2 - - 30.07 0 None
2018-04-24 22:00 51 21 - 29 200° 7 - - 30.07 0 None
2018-04-24 21:00 53 19 - 25 210° 9 18 - 30.07 0 None
2018-04-24 20:00 57 15 - 18 220° 7 17 - 30.05 0 None
2018-04-24 19:00 57 15 - 19 200° 9 22 - 30.06 0 None
2018-04-24 18:00 56 17 - 21 210° 12 22 - 30.09 0 None
2018-04-24 17:00 56 18 - 22 210° 9 - - 30.10 0 None
2018-04-24 16:00 54 18 - 23 210° 13 22 - 30.12 0 None
2018-04-24 15:00 53 18 - 25 210° 9 18 - 30.13 0 None
2018-04-24 14:00 51 18 - 26 200° 7 - - 30.12 0 None
2018-04-24 13:00 47 18 43 31 210° 8 - - 30.15 0 None

Support USWX by starting your Amazon purchase here.